createdAt,value
2018-11-10T00:00:34.709Z,937.04
2018-11-10T00:01:42.900Z,937.04
2018-11-10T00:02:50.855Z,937.07
2018-11-10T00:03:58.930Z,937.06
2018-11-10T00:05:07.002Z,937.09
2018-11-10T00:06:15.057Z,937.07
2018-11-10T00:07:23.218Z,937.05
2018-11-10T00:08:31.168Z,937.07
2018-11-10T00:09:39.342Z,937.05
2018-11-10T00:10:47.301Z,937.06
2018-11-10T00:11:55.379Z,937.00
2018-11-10T00:13:03.461Z,937.01
2018-11-10T00:14:11.491Z,936.98
2018-11-10T00:15:19.683Z,936.99
2018-11-10T00:16:27.735Z,937.00
2018-11-10T00:17:35.709Z,936.99
2018-11-10T00:18:43.740Z,937.00
2018-11-10T00:19:51.803Z,937.00
2018-11-10T00:20:59.870Z,936.98
2018-11-10T00:22:07.910Z,936.96
2018-11-10T00:23:16.070Z,937.00
2018-11-10T00:24:24.041Z,937.00
2018-11-10T00:25:32.195Z,936.99
2018-11-10T00:26:40.162Z,936.99
2018-11-10T00:27:48.226Z,936.99
2018-11-10T00:28:56.378Z,936.97
2018-11-10T00:30:04.352Z,936.97
2018-11-10T00:31:12.448Z,936.97
2018-11-10T00:32:20.492Z,936.96
2018-11-10T00:33:28.540Z,936.91
2018-11-10T00:34:36.716Z,936.90
2018-11-10T00:35:44.665Z,936.91
2018-11-10T00:36:52.723Z,936.94
2018-11-10T00:38:00.792Z,936.91
2018-11-10T00:39:08.846Z,936.93
2018-11-10T00:40:16.998Z,936.93
2018-11-10T00:41:25.004Z,936.96
2018-11-10T00:42:33.017Z,936.92
2018-11-10T00:43:41.093Z,936.93
2018-11-10T00:44:49.155Z,936.90
2018-11-10T00:45:57.317Z,936.94
2018-11-10T00:47:05.281Z,936.88
2018-11-10T00:48:13.348Z,936.84
2018-11-10T00:49:21.394Z,936.83
2018-11-10T00:50:29.504Z,936.84
2018-11-10T00:51:37.624Z,936.88
2018-11-10T00:52:45.589Z,936.88
2018-11-10T00:53:53.642Z,936.88
2018-11-10T00:55:01.702Z,936.86
2018-11-10T00:56:09.777Z,936.90
2018-11-10T00:57:17.926Z,936.87
2018-11-10T00:58:25.892Z,936.92
2018-11-10T00:59:33.939Z,936.90
2018-11-10T01:00:42.017Z,936.88
2018-11-10T01:01:50.073Z,936.91
2018-11-10T01:02:58.193Z,936.87
2018-11-10T01:04:06.194Z,936.88
2018-11-10T01:05:14.246Z,936.91
2018-11-10T01:06:22.319Z,936.93
2018-11-10T01:07:30.437Z,936.91
2018-11-10T01:08:38.458Z,936.87
2018-11-10T01:09:46.512Z,936.87
2018-11-10T01:10:54.551Z,936.84
2018-11-10T01:12:02.641Z,936.83
2018-11-10T01:13:10.787Z,936.81
2018-11-10T01:14:18.760Z,936.83
2018-11-10T01:15:26.812Z,936.80
2018-11-10T01:16:34.861Z,936.85
2018-11-10T01:17:43.045Z,936.84
2018-11-10T01:18:51.006Z,936.85
2018-11-10T01:19:59.070Z,936.88
2018-11-10T01:21:07.127Z,936.84
2018-11-10T01:22:15.180Z,936.86
2018-11-10T01:23:23.352Z,936.80
2018-11-10T01:24:31.342Z,936.78
2018-11-10T01:25:39.383Z,936.81
2018-11-10T01:26:47.440Z,936.81
2018-11-10T01:27:55.882Z,936.81
2018-11-10T01:29:03.662Z,936.77
2018-11-10T01:30:11.615Z,936.76
2018-11-10T01:31:19.684Z,936.84
2018-11-10T01:32:27.734Z,936.79
2018-11-10T01:33:35.819Z,936.79
2018-11-10T01:34:43.964Z,936.75
2018-11-10T01:35:51.926Z,936.79
2018-11-10T01:37:00.007Z,936.77
2018-11-10T01:38:08.045Z,936.80
2018-11-10T01:39:16.117Z,936.78
2018-11-10T01:40:24.243Z,936.78
2018-11-10T01:41:32.239Z,936.80
2018-11-10T01:42:40.405Z,936.72
2018-11-10T01:43:48.369Z,936.67
2018-11-10T01:44:56.427Z,936.65
2018-11-10T01:46:04.562Z,936.66
2018-11-10T01:47:12.551Z,936.63
2018-11-10T01:48:20.615Z,936.58
2018-11-10T01:49:28.676Z,936.56
2018-11-10T01:50:36.727Z,936.57
2018-11-10T01:51:44.874Z,936.57
2018-11-10T01:52:52.852Z,936.55
2018-11-10T01:54:00.925Z,936.50
2018-11-10T01:55:08.982Z,936.54
2018-11-10T01:56:17.053Z,936.52
2018-11-10T01:57:25.199Z,936.53
2018-11-10T01:58:33.185Z,936.56
2018-11-10T01:59:41.238Z,936.54
2018-11-10T02:00:49.309Z,936.57
2018-11-10T02:01:57.386Z,936.54
2018-11-10T02:03:05.520Z,936.50
2018-11-10T02:04:13.604Z,936.47
2018-11-10T02:05:21.552Z,936.44
2018-11-10T02:06:29.607Z,936.42
2018-11-10T02:07:37.720Z,936.45
2018-11-10T02:08:45.719Z,936.43
2018-11-10T02:09:53.778Z,936.41
2018-11-10T02:11:01.837Z,936.43
2018-11-10T02:12:09.899Z,936.41
2018-11-10T02:13:18.062Z,936.39
2018-11-10T02:14:26.037Z,936.37
2018-11-10T02:15:34.094Z,936.40
2018-11-10T02:16:42.157Z,936.41
2018-11-10T02:17:50.209Z,936.45
2018-11-10T02:18:58.371Z,936.43
2018-11-10T02:20:06.337Z,936.40
2018-11-10T02:21:14.389Z,936.43
2018-11-10T02:22:22.477Z,936.40
2018-11-10T02:23:30.533Z,936.41
2018-11-10T02:24:38.682Z,936.48
2018-11-10T02:25:46.655Z,936.45
2018-11-10T02:26:54.668Z,936.45
2018-11-10T02:28:02.768Z,936.46
2018-11-10T02:29:10.930Z,936.48
2018-11-10T02:30:18.989Z,936.47
2018-11-10T02:31:26.972Z,936.38
2018-11-10T02:32:34.990Z,936.33
2018-11-10T02:33:43.094Z,936.27
2018-11-10T02:34:51.145Z,936.29
2018-11-10T02:35:59.364Z,936.32
2018-11-10T02:37:07.270Z,936.34
2018-11-10T02:38:15.316Z,936.32
2018-11-10T02:39:23.386Z,936.23
2018-11-10T02:40:31.447Z,936.23
2018-11-10T02:41:39.603Z,936.28
2018-11-10T02:42:47.573Z,936.31
2018-11-10T02:43:55.620Z,936.30
2018-11-10T02:45:03.787Z,936.26
2018-11-10T02:46:11.759Z,936.23
2018-11-10T02:47:19.905Z,936.23
2018-11-10T02:48:27.881Z,936.24
2018-11-10T02:49:35.935Z,936.27
2018-11-10T02:50:43.999Z,936.24
2018-11-10T02:51:52.066Z,936.18
2018-11-10T02:53:00.238Z,936.15
2018-11-10T02:54:08.183Z,936.09
2018-11-10T02:55:16.271Z,936.11
2018-11-10T02:56:24.316Z,936.12
2018-11-10T02:57:32.471Z,936.05
2018-11-10T02:58:40.441Z,936.04
2018-11-10T02:59:48.642Z,936.04
2018-11-10T03:00:56.653Z,936.10
2018-11-10T03:02:04.593Z,936.07
2018-11-10T03:03:12.789Z,936.10
2018-11-10T03:04:20.746Z,936.05
2018-11-10T03:05:28.815Z,936.02
2018-11-10T03:06:36.855Z,936.02
2018-11-10T03:07:44.908Z,936.08
2018-11-10T03:08:53.080Z,936.10
2018-11-10T03:10:01.051Z,936.07
2018-11-10T03:11:09.108Z,936.03
2018-11-10T03:12:17.182Z,936.10
2018-11-10T03:13:25.226Z,936.07
2018-11-10T03:14:33.391Z,936.06
2018-11-10T03:15:41.357Z,936.03
2018-11-10T03:16:49.514Z,936.06
2018-11-10T03:17:57.489Z,936.05
2018-11-10T03:19:05.536Z,936.07
2018-11-10T03:20:13.694Z,936.06
2018-11-10T03:21:21.656Z,936.10
2018-11-10T03:22:29.728Z,936.09
2018-11-10T03:23:37.779Z,936.09
2018-11-10T03:24:45.851Z,936.08
2018-11-10T03:25:54.008Z,936.08
2018-11-10T03:27:01.979Z,936.05
2018-11-10T03:28:10.045Z,936.07
2018-11-10T03:29:18.103Z,936.05
2018-11-10T03:30:26.164Z,936.05
2018-11-10T03:31:34.299Z,936.04
2018-11-10T03:32:42.381Z,936.03
2018-11-10T03:33:50.344Z,936.03
2018-11-10T03:34:58.411Z,936.00
2018-11-10T03:36:06.465Z,935.94
2018-11-10T03:37:14.590Z,936.02
2018-11-10T03:38:22.593Z,936.02
2018-11-10T03:39:30.671Z,935.99
2018-11-10T03:40:38.714Z,935.99
2018-11-10T03:41:46.773Z,935.95
2018-11-10T03:42:54.901Z,936.00
2018-11-10T03:44:02.905Z,935.95
2018-11-10T03:45:10.953Z,935.91
2018-11-10T03:46:19.019Z,935.90
2018-11-10T03:47:27.197Z,935.89
2018-11-10T03:48:35.169Z,935.85
2018-11-10T03:49:43.193Z,935.87
2018-11-10T03:50:51.277Z,935.89
2018-11-10T03:51:59.345Z,935.90
2018-11-10T03:53:07.485Z,935.88
2018-11-10T03:54:15.459Z,935.91
2018-11-10T03:55:23.534Z,935.90
2018-11-10T03:56:31.609Z,935.89
2018-11-10T03:57:39.744Z,935.87
2018-11-10T03:58:47.709Z,935.91
2018-11-10T03:59:55.766Z,935.89
2018-11-10T04:01:03.956Z,935.87
2018-11-10T04:02:11.899Z,935.86
2018-11-10T04:03:20.035Z,935.86
2018-11-10T04:04:28.007Z,935.88
2018-11-10T04:05:36.075Z,935.83
2018-11-10T04:06:44.124Z,935.82
2018-11-10T04:07:52.207Z,935.80
2018-11-10T04:09:00.344Z,935.79
2018-11-10T04:10:08.315Z,935.81
2018-11-10T04:11:16.408Z,935.79
2018-11-10T04:12:24.427Z,935.78
2018-11-10T04:13:32.493Z,935.79
2018-11-10T04:14:40.662Z,935.81
2018-11-10T04:15:48.644Z,935.82
2018-11-10T04:16:56.695Z,935.79
2018-11-10T04:18:04.732Z,935.79
2018-11-10T04:19:12.907Z,935.80
2018-11-10T04:20:20.969Z,935.82
2018-11-10T04:21:28.945Z,935.79
2018-11-10T04:22:36.998Z,935.80
2018-11-10T04:23:45.051Z,935.79
2018-11-10T04:24:53.117Z,935.79
2018-11-10T04:26:01.297Z,935.78
2018-11-10T04:27:09.243Z,935.80
2018-11-10T04:28:17.301Z,935.77
2018-11-10T04:29:25.353Z,935.77
2018-11-10T04:30:33.423Z,935.73
2018-11-10T04:31:41.587Z,935.74
2018-11-10T04:32:49.559Z,935.71
2018-11-10T04:33:57.611Z,935.69
2018-11-10T04:35:05.773Z,935.66
2018-11-10T04:36:13.733Z,935.69
2018-11-10T04:37:21.885Z,935.68
2018-11-10T04:38:29.851Z,935.67
2018-11-10T04:39:37.898Z,935.60
2018-11-10T04:40:45.986Z,935.60
2018-11-10T04:41:54.034Z,935.58
2018-11-10T04:43:02.197Z,935.55
2018-11-10T04:44:10.156Z,935.57
2018-11-10T04:45:18.206Z,935.58
2018-11-10T04:46:26.295Z,935.59
2018-11-10T04:47:34.386Z,935.56
2018-11-10T04:48:42.422Z,935.57
2018-11-10T04:49:50.499Z,935.54
2018-11-10T04:50:58.622Z,935.54
2018-11-10T04:52:06.589Z,935.54
2018-11-10T04:53:14.734Z,935.47
2018-11-10T04:54:22.724Z,935.44
2018-11-10T04:55:30.910Z,935.40
2018-11-10T04:56:38.840Z,935.39
2018-11-10T04:57:46.899Z,935.39
2018-11-10T04:58:55.033Z,935.39
2018-11-10T05:00:03.026Z,935.43
2018-11-10T05:01:11.149Z,935.47
2018-11-10T05:02:19.130Z,935.46
2018-11-10T05:03:27.204Z,935.46
2018-11-10T05:04:35.358Z,935.48
2018-11-10T05:05:43.331Z,935.53
2018-11-10T05:06:51.489Z,935.54
2018-11-10T05:07:59.466Z,935.56
2018-11-10T05:09:07.509Z,935.58
2018-11-10T05:10:15.662Z,935.61
2018-11-10T05:11:23.628Z,935.61
2018-11-10T05:12:31.693Z,935.59
2018-11-10T05:13:39.766Z,935.62
2018-11-10T05:14:47.818Z,935.63
2018-11-10T05:15:55.981Z,935.66
2018-11-10T05:17:03.936Z,935.57
2018-11-10T05:18:12.006Z,935.56
2018-11-10T05:19:20.063Z,935.51
2018-11-10T05:20:28.127Z,935.51
2018-11-10T05:21:36.281Z,935.50
2018-11-10T05:22:44.322Z,935.50
2018-11-10T05:23:52.312Z,935.48
2018-11-10T05:25:00.386Z,935.47
2018-11-10T05:26:08.429Z,935.51
2018-11-10T05:27:16.582Z,935.51
2018-11-10T05:28:24.521Z,935.52
2018-11-10T05:29:32.617Z,935.57
2018-11-10T05:30:40.676Z,935.60
2018-11-10T05:31:48.745Z,935.55
2018-11-10T05:32:56.891Z,935.57
2018-11-10T05:34:04.842Z,935.57
2018-11-10T05:35:12.944Z,935.53
2018-11-10T05:36:20.984Z,935.54
2018-11-10T05:37:29.134Z,935.52
2018-11-10T05:38:37.108Z,935.44
2018-11-10T05:39:45.175Z,935.49
2018-11-10T05:40:53.228Z,935.50
2018-11-10T05:42:01.295Z,935.46
2018-11-10T05:43:09.448Z,935.47
2018-11-10T05:44:17.404Z,935.41
2018-11-10T05:45:25.481Z,935.38
2018-11-10T05:46:33.538Z,935.38
2018-11-10T05:47:41.599Z,935.39
2018-11-10T05:48:49.777Z,935.43
2018-11-10T05:49:57.728Z,935.41
2018-11-10T05:51:05.926Z,935.38
2018-11-10T05:52:13.834Z,935.38
2018-11-10T05:53:22.006Z,935.34
2018-11-10T05:54:30.744Z,935.31
2018-11-10T05:55:38.048Z,935.33
2018-11-10T05:56:46.107Z,935.37
2018-11-10T05:57:54.155Z,935.35
2018-11-10T05:59:02.226Z,935.33
2018-11-10T06:00:10.361Z,935.33
2018-11-10T06:01:18.470Z,935.28
2018-11-10T06:02:26.391Z,935.21
2018-11-10T06:03:34.432Z,935.16
2018-11-10T06:04:42.520Z,935.11
2018-11-10T06:05:50.708Z,935.11
2018-11-10T06:06:58.639Z,935.15
2018-11-10T06:08:06.791Z,935.13
2018-11-10T06:09:14.757Z,935.08
2018-11-10T06:10:23.097Z,935.07
2018-11-10T06:11:30.988Z,935.08
2018-11-10T06:12:39.403Z,935.17
2018-11-10T06:13:47.006Z,935.19
2018-11-10T06:14:55.063Z,935.23
2018-11-10T06:16:03.712Z,935.23
2018-11-10T06:17:11.301Z,935.19
2018-11-10T06:18:19.260Z,935.15
2018-11-10T06:19:27.317Z,935.15
2018-11-10T06:20:35.364Z,935.14
2018-11-10T06:21:43.459Z,935.18
2018-11-10T06:22:51.607Z,935.24
2018-11-10T06:23:59.549Z,935.22
2018-11-10T06:25:07.629Z,935.18
2018-11-10T06:26:15.812Z,935.15
2018-11-10T06:27:23.746Z,935.15
2018-11-10T06:28:31.801Z,935.09
2018-11-10T06:29:39.879Z,935.18
2018-11-10T06:30:47.938Z,935.20
2018-11-10T06:31:55.997Z,935.26
2018-11-10T06:33:04.079Z,935.28
2018-11-10T06:34:12.123Z,935.28
2018-11-10T06:35:20.162Z,935.28
2018-11-10T06:36:28.241Z,935.25
2018-11-10T06:37:36.390Z,935.17
2018-11-10T06:38:44.349Z,935.13
2018-11-10T06:39:52.417Z,935.13
2018-11-10T06:41:00.507Z,935.18
2018-11-10T06:42:08.543Z,935.22
2018-11-10T06:43:16.693Z,935.27
2018-11-10T06:44:24.653Z,935.23
2018-11-10T06:45:32.891Z,935.15
2018-11-10T06:46:40.893Z,935.10
2018-11-10T06:47:48.838Z,935.06
2018-11-10T06:48:56.988Z,935.08
2018-11-10T06:50:04.957Z,935.12
2018-11-10T06:51:13.015Z,935.25
2018-11-10T06:52:21.120Z,935.33
2018-11-10T06:53:29.261Z,935.31
2018-11-10T06:54:37.299Z,935.26
2018-11-10T06:55:45.274Z,935.30
2018-11-10T06:56:53.338Z,935.27
2018-11-10T06:58:01.396Z,935.17
2018-11-10T06:59:09.455Z,935.13
2018-11-10T07:00:17.624Z,935.10
2018-11-10T07:01:25.589Z,935.08
2018-11-10T07:02:33.649Z,935.08
2018-11-10T07:03:41.709Z,935.08
2018-11-10T07:04:49.808Z,935.09
2018-11-10T07:05:57.802Z,935.03
2018-11-10T07:07:05.890Z,935.04
2018-11-10T07:08:13.953Z,935.12
2018-11-10T07:09:22.152Z,935.15
2018-11-10T07:10:30.167Z,935.15
2018-11-10T07:11:38.136Z,935.21
2018-11-10T07:12:46.348Z,935.17
2018-11-10T07:13:54.262Z,935.18
2018-11-10T07:15:02.306Z,935.19
2018-11-10T07:16:10.463Z,935.28
2018-11-10T07:17:18.452Z,935.30
2018-11-10T07:18:26.546Z,935.28
2018-11-10T07:19:34.549Z,935.25
2018-11-10T07:20:42.640Z,935.22
2018-11-10T07:21:50.784Z,935.16
2018-11-10T07:22:58.737Z,935.12
2018-11-10T07:24:06.814Z,935.16
2018-11-10T07:25:14.947Z,935.18
2018-11-10T07:26:22.940Z,935.18
2018-11-10T07:27:31.098Z,935.19
2018-11-10T07:28:39.060Z,935.21
2018-11-10T07:29:47.136Z,935.29
2018-11-10T07:30:55.192Z,935.36
2018-11-10T07:32:03.405Z,935.40
2018-11-10T07:33:11.407Z,935.39
2018-11-10T07:34:19.390Z,935.39
2018-11-10T07:35:27.446Z,935.36
2018-11-10T07:36:35.499Z,935.37
2018-11-10T07:37:43.666Z,935.36
2018-11-10T07:38:51.624Z,935.48
2018-11-10T07:39:59.686Z,935.48
2018-11-10T07:41:07.830Z,935.50
2018-11-10T07:42:15.804Z,935.49
2018-11-10T07:43:23.976Z,935.46
2018-11-10T07:44:31.932Z,935.50
2018-11-10T07:45:39.996Z,935.50
2018-11-10T07:46:48.212Z,935.51
2018-11-10T07:47:56.108Z,935.48
2018-11-10T07:49:04.260Z,935.48
2018-11-10T07:50:12.236Z,935.48
2018-11-10T07:51:20.345Z,935.52
2018-11-10T07:52:28.375Z,935.52
2018-11-10T07:53:36.432Z,935.54
2018-11-10T07:54:44.564Z,935.49
2018-11-10T07:55:52.674Z,935.45
2018-11-10T07:57:00.610Z,935.50
2018-11-10T07:58:08.675Z,935.51
2018-11-10T07:59:16.730Z,935.51
2018-11-10T08:00:24.874Z,935.53
2018-11-10T08:01:32.861Z,935.52
2018-11-10T08:02:40.907Z,935.55
2018-11-10T08:03:48.983Z,935.54
2018-11-10T08:04:57.025Z,935.50
2018-11-10T08:06:05.234Z,935.57
2018-11-10T08:07:13.176Z,935.64
2018-11-10T08:08:21.244Z,935.59
2018-11-10T08:09:29.305Z,935.60
2018-11-10T08:10:37.371Z,935.55
2018-11-10T08:11:45.537Z,935.58
2018-11-10T08:12:53.479Z,935.62
2018-11-10T08:14:01.570Z,935.56
2018-11-10T08:15:09.621Z,935.65
2018-11-10T08:16:17.675Z,935.63
2018-11-10T08:17:25.820Z,935.69
2018-11-10T08:18:33.865Z,935.75
2018-11-10T08:19:41.875Z,935.78
2018-11-10T08:20:49.929Z,935.74
2018-11-10T08:21:58.004Z,935.76
2018-11-10T08:23:06.098Z,935.78
2018-11-10T08:24:14.115Z,935.81
2018-11-10T08:25:22.188Z,935.79
2018-11-10T08:26:30.248Z,935.77
2018-11-10T08:27:38.423Z,935.76
2018-11-10T08:28:46.360Z,935.73
2018-11-10T08:29:54.416Z,935.76
2018-11-10T08:31:02.497Z,935.73
2018-11-10T08:32:10.545Z,935.79
2018-11-10T08:33:18.723Z,935.76
2018-11-10T08:34:26.686Z,935.76
2018-11-10T08:35:34.718Z,935.77
2018-11-10T08:36:42.807Z,935.78
2018-11-10T08:37:50.964Z,935.81
2018-11-10T08:38:58.983Z,935.79
2018-11-10T08:40:06.998Z,935.75
2018-11-10T08:41:15.048Z,935.73
2018-11-10T08:42:23.272Z,935.73
2018-11-10T08:43:31.272Z,935.74
2018-11-10T08:44:39.269Z,935.70
2018-11-10T08:45:47.307Z,935.79
2018-11-10T08:46:55.393Z,935.81
2018-11-10T08:48:03.427Z,935.82
2018-11-10T08:49:11.668Z,935.86
2018-11-10T08:50:19.558Z,935.77
2018-11-10T08:51:27.625Z,935.78
2018-11-10T08:52:35.691Z,935.80
2018-11-10T08:53:43.726Z,935.79
2018-11-10T08:54:51.921Z,935.78
2018-11-10T08:55:59.882Z,935.76
2018-11-10T08:57:07.941Z,935.74
2018-11-10T08:58:16.096Z,935.78
2018-11-10T08:59:24.069Z,935.76
2018-11-10T09:00:32.231Z,935.78
2018-11-10T09:01:40.202Z,935.76
2018-11-10T09:02:48.268Z,935.80
2018-11-10T09:03:56.311Z,935.81
2018-11-10T09:05:04.367Z,935.83
2018-11-10T09:06:12.554Z,935.81
2018-11-10T09:07:20.505Z,935.87
2018-11-10T09:08:28.588Z,935.88
2018-11-10T09:09:36.697Z,935.86
2018-11-10T09:10:44.698Z,935.85
2018-11-10T09:11:52.871Z,935.85
2018-11-10T09:13:00.919Z,935.87
2018-11-10T09:14:08.890Z,935.85
2018-11-10T09:15:17.017Z,935.90
2018-11-10T09:16:25.003Z,935.86
2018-11-10T09:17:33.197Z,935.88
2018-11-10T09:18:41.156Z,935.91
2018-11-10T09:19:49.219Z,935.86
2018-11-10T09:20:57.304Z,935.83
2018-11-10T09:22:05.370Z,935.84
2018-11-10T09:23:13.511Z,935.85
2018-11-10T09:24:21.464Z,935.87
2018-11-10T09:25:29.521Z,935.89
2018-11-10T09:26:37.599Z,935.91
2018-11-10T09:27:45.751Z,935.92
2018-11-10T09:28:53.815Z,935.87
2018-11-10T09:30:01.793Z,935.91
2018-11-10T09:31:09.849Z,935.94
2018-11-10T09:32:17.945Z,935.90
2018-11-10T09:33:26.087Z,935.90
2018-11-10T09:34:34.060Z,935.90
2018-11-10T09:35:42.111Z,935.91
2018-11-10T09:36:50.326Z,935.92
2018-11-10T09:37:58.236Z,935.86
2018-11-10T09:39:06.393Z,935.85
2018-11-10T09:40:14.353Z,935.80
2018-11-10T09:41:22.448Z,935.83
2018-11-10T09:42:30.740Z,935.82
2018-11-10T09:43:38.558Z,935.80
2018-11-10T09:44:46.716Z,935.80
2018-11-10T09:45:54.665Z,935.82
2018-11-10T09:47:02.758Z,935.76
2018-11-10T09:48:10.816Z,935.78
2018-11-10T09:49:18.913Z,935.78
2018-11-10T09:50:27.023Z,935.78
2018-11-10T09:51:35.007Z,935.79
2018-11-10T09:52:43.088Z,935.82
2018-11-10T09:53:51.139Z,935.79
2018-11-10T09:54:59.195Z,935.71
2018-11-10T09:56:07.361Z,935.70
2018-11-10T09:57:15.327Z,935.69
2018-11-10T09:58:23.397Z,935.70
2018-11-10T09:59:31.460Z,935.71
2018-11-10T10:00:39.604Z,935.75
2018-11-10T10:01:48.047Z,935.73
2018-11-10T10:02:55.652Z,935.75
2018-11-10T10:04:03.710Z,935.77
2018-11-10T10:05:11.799Z,935.74
2018-11-10T10:06:19.843Z,935.73
2018-11-10T10:07:28.007Z,935.75
2018-11-10T10:08:35.990Z,935.71
2018-11-10T10:09:46.057Z,935.69
2018-11-10T10:12:09.477Z,935.64
2018-11-10T10:13:17.602Z,935.68
2018-11-10T10:14:25.600Z,935.65
2018-11-10T10:15:33.647Z,935.64
2018-11-10T10:16:41.810Z,935.67
2018-11-10T10:17:49.874Z,935.67
2018-11-10T10:18:57.844Z,935.72
2018-11-10T10:20:06.282Z,935.66
2018-11-10T10:21:14.150Z,935.62
2018-11-10T10:22:22.054Z,935.58
2018-11-10T10:23:31.092Z,935.58
2018-11-10T10:24:39.158Z,935.57
2018-11-10T10:25:47.467Z,935.57
2018-11-10T10:26:55.507Z,935.60
2018-11-10T10:28:03.660Z,935.65
2018-11-10T10:29:11.753Z,935.67
2018-11-10T10:30:19.843Z,935.67
2018-11-10T10:31:27.849Z,935.64
2018-11-10T10:32:35.812Z,935.62
2018-11-10T10:33:44.078Z,935.66
2018-11-10T10:34:52.157Z,935.66
2018-11-10T10:36:00.175Z,935.60
2018-11-10T10:37:08.068Z,935.61
2018-11-10T10:38:16.146Z,935.67
2018-11-10T10:39:24.286Z,935.65
2018-11-10T10:40:32.255Z,935.62
2018-11-10T10:41:40.335Z,935.63
2018-11-10T10:42:48.406Z,935.62
2018-11-10T10:43:56.461Z,935.63
2018-11-10T10:45:04.599Z,935.63
2018-11-10T10:46:12.590Z,935.61
2018-11-10T10:47:20.755Z,935.61
2018-11-10T10:48:28.768Z,935.62
2018-11-10T10:49:36.792Z,935.60
2018-11-10T10:50:44.923Z,935.47
2018-11-10T10:51:52.922Z,935.58
2018-11-10T10:53:00.998Z,935.54
2018-11-10T10:54:09.062Z,935.55
2018-11-10T10:55:17.110Z,935.53
2018-11-10T10:56:25.360Z,935.51
2018-11-10T10:57:33.259Z,935.53
2018-11-10T10:58:41.309Z,935.55
2018-11-10T10:59:49.374Z,935.53
2018-11-10T11:00:57.444Z,935.54
2018-11-10T11:02:05.633Z,935.54
2018-11-10T11:03:13.719Z,935.59
2018-11-10T11:04:21.643Z,935.55
2018-11-10T11:05:29.724Z,935.57
2018-11-10T11:06:37.769Z,935.53
2018-11-10T11:07:45.926Z,935.52
2018-11-10T11:08:53.918Z,935.52
2018-11-10T11:10:01.973Z,935.47
2018-11-10T11:11:10.027Z,935.48
2018-11-10T11:12:18.100Z,935.50
2018-11-10T11:13:26.215Z,935.48
2018-11-10T11:14:34.221Z,935.49
2018-11-10T11:15:42.354Z,935.47
2018-11-10T11:16:50.363Z,935.48
2018-11-10T11:17:58.518Z,935.44
2018-11-10T11:19:06.497Z,935.43
2018-11-10T11:20:14.565Z,935.44
2018-11-10T11:21:22.616Z,935.46
2018-11-10T11:22:30.799Z,935.41
2018-11-10T11:23:38.793Z,935.40
2018-11-10T11:24:46.819Z,935.42
2018-11-10T11:25:54.852Z,935.39
2018-11-10T11:27:02.946Z,935.36
2018-11-10T11:28:11.120Z,935.38
2018-11-10T11:29:19.217Z,935.39
2018-11-10T11:30:27.303Z,935.41
2018-11-10T11:31:35.190Z,935.40
2018-11-10T11:32:43.340Z,935.36
2018-11-10T11:33:51.517Z,935.43
2018-11-10T11:34:59.427Z,935.39
2018-11-10T11:36:07.484Z,935.44
2018-11-10T11:37:15.578Z,935.38
2018-11-10T11:38:23.613Z,935.34
2018-11-10T11:39:31.778Z,935.32
2018-11-10T11:40:39.745Z,935.37
2018-11-10T11:41:47.900Z,935.41
2018-11-10T11:42:55.875Z,935.42
2018-11-10T11:44:03.933Z,935.43
2018-11-10T11:45:12.090Z,935.40
2018-11-10T11:46:20.083Z,935.38
2018-11-10T11:47:28.144Z,935.40
2018-11-10T11:48:36.199Z,935.34
2018-11-10T11:49:44.319Z,935.43
2018-11-10T11:50:52.423Z,935.36
2018-11-10T11:52:00.421Z,935.43
2018-11-10T11:53:08.476Z,935.45
2018-11-10T11:54:16.538Z,935.43
2018-11-10T11:55:24.583Z,935.45
2018-11-10T11:56:32.771Z,935.40
2018-11-10T11:57:40.753Z,935.33
2018-11-10T11:58:48.784Z,935.34
2018-11-10T11:59:56.868Z,935.36
2018-11-10T12:01:04.905Z,935.29
2018-11-10T12:02:13.149Z,935.24
2018-11-10T12:03:21.145Z,935.20
2018-11-10T12:04:29.131Z,935.22
2018-11-10T12:05:37.214Z,935.21
2018-11-10T12:06:45.352Z,935.26
2018-11-10T12:07:53.326Z,935.25
2018-11-10T12:09:01.400Z,935.20
2018-11-10T12:10:09.453Z,935.13
2018-11-10T12:11:17.527Z,935.13
2018-11-10T12:12:25.671Z,935.16
2018-11-10T12:13:33.663Z,935.12
2018-11-10T12:14:41.718Z,935.10
2018-11-10T12:15:49.800Z,935.09
2018-11-10T12:16:58.004Z,935.11
2018-11-10T12:18:06.014Z,935.08
2018-11-10T12:19:14.073Z,935.05
2018-11-10T12:20:22.054Z,935.05
2018-11-10T12:21:30.119Z,935.11
2018-11-10T12:22:38.292Z,935.09
2018-11-10T12:23:46.404Z,935.10
2018-11-10T12:24:54.297Z,935.09
2018-11-10T12:26:02.371Z,935.11
2018-11-10T12:27:10.441Z,935.10
2018-11-10T12:28:18.598Z,935.09
2018-11-10T12:29:26.591Z,935.10
2018-11-10T12:30:34.626Z,935.05
2018-11-10T12:31:42.698Z,935.06
2018-11-10T12:32:50.773Z,935.01
2018-11-10T12:33:58.917Z,935.02
2018-11-10T12:35:06.986Z,935.03
2018-11-10T12:36:14.974Z,935.07
2018-11-10T12:37:23.031Z,935.01
2018-11-10T12:38:31.146Z,934.99
2018-11-10T12:39:39.252Z,934.99
2018-11-10T12:40:47.226Z,935.00
2018-11-10T12:41:55.282Z,934.98
2018-11-10T12:43:03.357Z,934.93
2018-11-10T12:44:11.431Z,934.91
2018-11-10T12:45:19.583Z,934.88
2018-11-10T12:46:27.659Z,934.93
2018-11-10T12:47:35.615Z,934.91
2018-11-10T12:48:43.672Z,934.90
2018-11-10T12:49:51.734Z,934.92
2018-11-10T12:50:59.897Z,934.87
2018-11-10T12:52:07.914Z,934.85
2018-11-10T12:53:15.992Z,934.87
2018-11-10T12:54:24.011Z,934.87
2018-11-10T12:55:32.069Z,934.85
2018-11-10T12:56:40.236Z,934.84
2018-11-10T12:57:48.260Z,934.83
2018-11-10T12:58:56.282Z,934.84
2018-11-10T13:00:04.318Z,934.84
2018-11-10T13:01:12.388Z,934.84
2018-11-10T13:02:20.577Z,934.82
2018-11-10T13:03:28.513Z,934.80
2018-11-10T13:04:36.588Z,934.72
2018-11-10T13:05:44.637Z,934.73
2018-11-10T13:06:52.805Z,934.65
2018-11-10T13:08:00.878Z,934.63
2018-11-10T13:09:08.971Z,934.64
2018-11-10T13:10:16.903Z,934.59
2018-11-10T13:11:25.217Z,934.54
2018-11-10T13:12:33.140Z,934.57
2018-11-10T13:13:41.240Z,934.59
2018-11-10T13:14:49.160Z,934.60
2018-11-10T13:15:57.381Z,934.57
2018-11-10T13:17:05.297Z,934.59
2018-11-10T13:18:13.456Z,934.60
2018-11-10T13:19:21.435Z,934.64
2018-11-10T13:20:29.493Z,934.64
2018-11-10T13:21:37.564Z,934.65
2018-11-10T13:22:45.713Z,934.66
2018-11-10T13:23:53.836Z,934.58
2018-11-10T13:25:01.751Z,934.59
2018-11-10T13:26:09.796Z,934.56
2018-11-10T13:27:17.873Z,934.56
2018-11-10T13:28:25.934Z,934.56
2018-11-10T13:29:34.120Z,934.51
2018-11-10T13:30:42.108Z,934.50
2018-11-10T13:31:50.168Z,934.47
2018-11-10T13:32:58.198Z,934.52
2018-11-10T13:34:06.263Z,934.47
2018-11-10T13:35:14.404Z,934.40
2018-11-10T13:36:22.369Z,934.39
2018-11-10T13:37:30.531Z,934.39
2018-11-10T13:38:38.554Z,934.42
2018-11-10T13:39:46.587Z,934.41
2018-11-10T13:40:54.715Z,934.36
2018-11-10T13:42:02.699Z,934.34
2018-11-10T13:43:10.812Z,934.39
2018-11-10T13:44:18.856Z,934.43
2018-11-10T13:45:26.889Z,934.40
2018-11-10T13:46:35.047Z,934.41
2018-11-10T13:47:43.056Z,934.40
2018-11-10T13:48:51.092Z,934.41
2018-11-10T13:49:59.173Z,934.41
2018-11-10T13:51:07.509Z,934.47
2018-11-10T13:52:15.739Z,934.54
2018-11-10T13:53:23.426Z,934.58
2018-11-10T13:54:31.415Z,934.58
2018-11-10T13:55:39.476Z,934.56
2018-11-10T13:56:47.529Z,934.54
2018-11-10T13:57:55.700Z,934.56
2018-11-10T13:59:03.669Z,934.60
2018-11-10T14:00:11.727Z,934.60
2018-11-10T14:01:19.800Z,934.62
2018-11-10T14:02:27.951Z,934.59
2018-11-10T14:03:35.947Z,934.57
2018-11-10T14:04:43.970Z,934.54
2018-11-10T14:05:52.038Z,934.54
2018-11-10T14:07:00.118Z,934.54
2018-11-10T14:08:08.418Z,934.52
2018-11-10T14:09:16.227Z,934.57
2018-11-10T14:10:24.343Z,934.58